Time;durP1;ratioP1;P1;durP2;ratioP2;P2;SDS_P1;SDS_P2;PMS_P1;PMS_P2;Temp;Humidity;BMP_temperature;BMP_pressure;BME280_temperature;BME280_humidity;BME280_pressure;Samples;Min_cycle;Max_cycle;Signal;HPM_P1;HPM_P2
2021/08/21 00:02:09;;;;;;;0.10;0.10;;;;;;;;;;5054851;28;20119;-89
2021/08/21 00:04:37;;;;;;;0.10;0.10;;;;;;;;;;5072798;28;20037;-89
2021/08/21 00:07:06;;;;;;;0.57;0.57;;;;;;;;;;5054981;28;20048;-89
2021/08/21 00:09:34;;;;;;;0.10;0.10;;;;;;;;;;5054806;28;20510;-89
2021/08/21 00:12:00;;;;;;;0.10;0.10;;;;;;;;;;5054750;28;20037;-90
2021/08/21 00:14:26;;;;;;;0.10;0.10;;;;;;;;;;5038191;28;20115;-89
2021/08/21 00:16:53;;;;;;;0.10;0.10;;;;;;;;;;5054757;28;20048;-89
2021/08/21 00:19:20;;;;;;;0.80;0.30;;;;;;;;;;5054073;28;20075;-88
2021/08/21 00:21:48;;;;;;;0.10;0.10;;;;;;;;;;5072376;28;20040;-90
2021/08/21 00:24:14;;;;;;;0.10;0.10;;;;;;;;;;5038367;28;20123;-90
2021/08/21 00:26:40;;;;;;;0.10;0.10;;;;;;;;;;5038201;28;20056;-90
2021/08/21 00:29:06;;;;;;;0.15;0.15;;;;;;;;;;5054841;28;20028;-89
2021/08/21 00:31:32;;;;;;;0.10;0.10;;;;;;;;;;5054762;28;20072;-89
2021/08/21 00:33:59;;;;;;;0.10;0.10;;;;;;;;;;5038825;28;20057;-89
2021/08/21 00:36:25;;;;;;;0.10;0.10;;;;;;;;;;5031514;28;20100;-89
2021/08/21 00:38:51;;;;;;;0.10;0.10;;;;;;;;;;5014997;28;20146;-89
2021/08/21 00:41:18;;;;;;;0.10;0.10;;;;;;;;;;5032448;28;20523;-90
2021/08/21 00:43:44;;;;;;;0.10;0.10;;;;;;;;;;5032449;28;20052;-91
2021/08/21 00:46:10;;;;;;;0.10;0.10;;;;;;;;;;5031065;28;20049;-90
2021/08/21 00:48:36;;;;;;;0.10;0.10;;;;;;;;;;5032370;28;20034;-89
2021/08/21 00:51:02;;;;;;;0.10;0.10;;;;;;;;;;5014820;28;20044;-89
2021/08/21 00:53:29;;;;;;;0.10;0.10;;;;;;;;;;5014564;28;20111;-88
2021/08/21 00:55:55;;;;;;;0.20;0.20;;;;;;;;;;5014405;28;20046;-89
2021/08/21 00:58:22;;;;;;;0.30;0.30;;;;;;;;;;5031241;28;20076;-91
2021/08/21 01:00:48;;;;;;;0.10;0.10;;;;;;;;;;5048218;28;20431;-90
2021/08/21 01:03:14;;;;;;;0.13;0.13;;;;;;;;;;5014949;28;20448;-91
2021/08/21 01:05:40;;;;;;;0.10;0.10;;;;;;;;;;5031745;28;20099;-90
2021/08/21 01:08:06;;;;;;;0.13;0.13;;;;;;;;;;5031554;28;20034;-90
2021/08/21 01:10:33;;;;;;;0.17;0.17;;;;;;;;;;5030878;28;20041;-89
2021/08/21 01:13:00;;;;;;;0.20;0.20;;;;;;;;;;5030395;28;20053;-89
2021/08/21 01:15:26;;;;;;;0.20;0.20;;;;;;;;;;5030716;28;20069;-88
2021/08/21 01:17:52;;;;;;;0.10;0.10;;;;;;;;;;5032035;28;20048;-90
2021/08/21 01:20:19;;;;;;;0.10;0.10;;;;;;;;;;5030946;28;20128;-89
2021/08/21 01:22:45;;;;;;;0.10;0.10;;;;;;;;;;5031236;28;20042;-91
2021/08/21 01:25:15;;;;;;;0.10;0.10;;;;;;;;;;5031281;28;20055;-91
2021/08/21 01:27:41;;;;;;;0.10;0.10;;;;;;;;;;5031125;28;20444;-90
2021/08/21 01:30:07;;;;;;;0.10;0.10;;;;;;;;;;5030689;28;20068;-86
2021/08/21 01:32:33;;;;;;;0.10;0.10;;;;;;;;;;5033368;28;20064;-89
2021/08/21 01:34:59;;;;;;;0.20;0.20;;;;;;;;;;5041166;28;20045;-82
2021/08/21 01:37:26;;;;;;;0.10;0.10;;;;;;;;;;5057250;28;20037;-85
2021/08/21 01:39:52;;;;;;;0.10;0.10;;;;;;;;;;5057611;28;20040;-88
2021/08/21 01:42:18;;;;;;;0.20;0.20;;;;;;;;;;5040713;28;20032;-87
2021/08/21 01:44:44;;;;;;;0.10;0.10;;;;;;;;;;5075059;28;20044;-87
2021/08/21 01:47:11;;;;;;;0.20;0.20;;;;;;;;;;5057285;28;20043;-88
2021/08/21 01:49:38;;;;;;;0.10;0.10;;;;;;;;;;5075030;28;20044;-87
2021/08/21 01:52:04;;;;;;;0.10;0.10;;;;;;;;;;5057235;28;20052;-87
2021/08/21 01:54:31;;;;;;;0.10;0.10;;;;;;;;;;5074906;28;20535;-86
2021/08/21 01:56:59;;;;;;;0.10;0.10;;;;;;;;;;5056877;28;20115;-86
2021/08/21 01:59:44;;;;;;;0.20;0.20;;;;;;;;;;5057020;28;20049;-87
2021/08/21 02:02:14;;;;;;;0.10;0.10;;;;;;;;;;5057153;28;20543;-87
2021/08/21 02:04:40;;;;;;;0.10;0.10;;;;;;;;;;5040308;28;20053;-86
2021/08/21 02:07:06;;;;;;;0.10;0.10;;;;;;;;;;5056944;28;20043;-86
2021/08/21 02:09:34;;;;;;;0.10;0.10;;;;;;;;;;5074535;28;20044;-86
2021/08/21 02:12:00;;;;;;;0.10;0.10;;;;;;;;;;5056383;28;20044;-87
2021/08/21 02:14:27;;;;;;;0.10;0.10;;;;;;;;;;5074933;28;20044;-91
2021/08/21 02:16:58;;;;;;;0.10;0.10;;;;;;;;;;5040631;28;20050;-90
2021/08/21 02:19:24;;;;;;;0.10;0.10;;;;;;;;;;5040551;28;20044;-88
2021/08/21 02:21:50;;;;;;;0.20;0.20;;;;;;;;;;5056781;28;20119;-89
2021/08/21 02:24:17;;;;;;;0.10;0.10;;;;;;;;;;5024539;28;20113;-90
2021/08/21 02:26:43;;;;;;;0.10;0.10;;;;;;;;;;5056919;28;20033;-89
2021/08/21 02:29:10;;;;;;;0.10;0.10;;;;;;;;;;5056592;28;20437;-90
2021/08/21 02:31:36;;;;;;;0.10;0.10;;;;;;;;;;5056554;28;20089;-90
2021/08/21 02:34:02;;;;;;;0.10;0.10;;;;;;;;;;5052752;28;20064;-90
2021/08/21 02:36:28;;;;;;;0.20;0.20;;;;;;;;;;5052989;28;20033;-89
2021/08/21 02:38:54;;;;;;;0.10;0.10;;;;;;;;;;5053106;28;20033;-90
2021/08/21 02:41:20;;;;;;;0.10;0.10;;;;;;;;;;5036424;28;20062;-89
2021/08/21 02:43:46;;;;;;;0.10;0.10;;;;;;;;;;5052535;28;20138;-89
2021/08/21 02:46:12;;;;;;;0.30;0.30;;;;;;;;;;5053008;28;20064;-89
2021/08/21 02:48:38;;;;;;;0.10;0.10;;;;;;;;;;5053097;28;20048;-89
2021/08/21 02:51:04;;;;;;;0.20;0.20;;;;;;;;;;5052640;28;20069;-89
2021/08/21 02:53:30;;;;;;;0.10;0.10;;;;;;;;;;5052572;28;20041;-89
2021/08/21 02:55:56;;;;;;;0.10;0.10;;;;;;;;;;5036131;28;20041;-89
2021/08/21 02:58:22;;;;;;;0.10;0.10;;;;;;;;;;5036128;28;20112;-88
2021/08/21 03:00:48;;;;;;;0.10;0.10;;;;;;;;;;5036049;28;20068;-88
2021/08/21 03:03:14;;;;;;;0.10;0.10;;;;;;;;;;5052680;28;20127;-89
2021/08/21 03:05:40;;;;;;;0.20;0.20;;;;;;;;;;5052508;28;20037;-89
2021/08/21 03:08:06;;;;;;;0.20;0.20;;;;;;;;;;5035740;28;20091;-89
2021/08/21 03:10:32;;;;;;;0.10;0.10;;;;;;;;;;5052349;28;20036;-88
2021/08/21 03:12:58;;;;;;;0.20;0.20;;;;;;;;;;5053289;28;20089;-88
2021/08/21 03:15:39;;;;;;;0.10;0.10;;;;;;;;;;4997149;28;20565;-88
2021/08/21 03:18:07;;;;;;;0.10;0.10;;;;;;;;;;4995331;28;20398;-89
2021/08/21 03:20:34;;;;;;;0.10;0.10;;;;;;;;;;4995466;28;20052;-88
2021/08/21 03:23:00;;;;;;;0.10;0.10;;;;;;;;;;4995587;28;20117;-89
2021/08/21 03:25:26;;;;;;;0.10;0.10;;;;;;;;;;4995250;28;20065;-88
2021/08/21 03:27:52;;;;;;;0.10;0.10;;;;;;;;;;4995429;28;20038;-89
2021/08/21 03:30:18;;;;;;;0.10;0.10;;;;;;;;;;4995141;28;20042;-88
2021/08/21 03:32:44;;;;;;;0.10;0.10;;;;;;;;;;4994659;28;20137;-88
2021/08/21 03:35:10;;;;;;;0.10;0.10;;;;;;;;;;4994821;28;20129;-89
2021/08/21 03:37:36;;;;;;;0.10;0.10;;;;;;;;;;4995156;28;20261;-88
2021/08/21 03:40:02;;;;;;;0.10;0.10;;;;;;;;;;4994847;28;20473;-88
2021/08/21 03:42:28;;;;;;;0.10;0.10;;;;;;;;;;5010898;28;20048;-89
2021/08/21 03:44:54;;;;;;;0.10;0.10;;;;;;;;;;5011166;28;20046;-89
2021/08/21 03:47:20;;;;;;;0.10;0.10;;;;;;;;;;5024995;28;20052;-88
2021/08/21 03:49:47;;;;;;;0.10;0.10;;;;;;;;;;5031770;28;20103;-88
2021/08/21 03:52:13;;;;;;;0.20;0.20;;;;;;;;;;5015160;28;20047;-88
2021/08/21 03:54:39;;;;;;;0.10;0.10;;;;;;;;;;5014508;28;20067;-88
2021/08/21 03:57:05;;;;;;;0.10;0.10;;;;;;;;;;5031500;28;20037;-88
2021/08/21 03:59:31;;;;;;;0.10;0.10;;;;;;;;;;5031404;28;20044;-88
2021/08/21 04:01:57;;;;;;;0.10;0.10;;;;;;;;;;5032602;28;20691;-89
2021/08/21 04:04:23;;;;;;;0.15;0.15;;;;;;;;;;5031508;28;20045;-89
2021/08/21 04:06:49;;;;;;;1.75;0.20;;;;;;;;;;5032728;28;20472;-88
2021/08/21 04:09:15;;;;;;;0.10;0.10;;;;;;;;;;5031437;28;20544;-88
2021/08/21 04:11:41;;;;;;;0.10;0.10;;;;;;;;;;5047658;28;20481;-89
2021/08/21 04:14:08;;;;;;;0.10;0.10;;;;;;;;;;5031213;28;20091;-89
2021/08/21 04:16:34;;;;;;;0.10;0.10;;;;;;;;;;5014797;28;20041;-89
2021/08/21 04:19:03;;;;;;;0.10;0.10;;;;;;;;;;5015193;28;20131;-89
2021/08/21 04:21:29;;;;;;;0.10;0.10;;;;;;;;;;5031228;28;20457;-89
2021/08/21 04:23:55;;;;;;;0.10;0.10;;;;;;;;;;5032133;28;20476;-89
2021/08/21 04:26:21;;;;;;;0.10;0.10;;;;;;;;;;5031418;28;20064;-88
2021/08/21 04:28:47;;;;;;;0.10;0.10;;;;;;;;;;5032148;28;20180;-88
2021/08/21 04:31:13;;;;;;;0.10;0.10;;;;;;;;;;5030887;28;20180;-88
2021/08/21 04:33:39;;;;;;;0.10;0.10;;;;;;;;;;5023773;28;20469;-88
2021/08/21 04:36:05;;;;;;;0.13;0.13;;;;;;;;;;5050808;28;20040;-89
2021/08/21 04:38:32;;;;;;;0.10;0.10;;;;;;;;;;5051107;28;20033;-89
2021/08/21 04:40:58;;;;;;;0.65;0.47;;;;;;;;;;5034583;28;20083;-88
2021/08/21 04:43:25;;;;;;;0.38;0.38;;;;;;;;;;5050779;28;20056;-89
2021/08/21 04:45:51;;;;;;;0.10;0.10;;;;;;;;;;5052381;28;20502;-88
2021/08/21 04:48:17;;;;;;;0.10;0.10;;;;;;;;;;5050590;28;20037;-89
2021/08/21 04:50:43;;;;;;;0.10;0.10;;;;;;;;;;5050674;28;20040;-88
2021/08/21 04:53:09;;;;;;;0.10;0.10;;;;;;;;;;5050600;28;20093;-88
2021/08/21 04:55:35;;;;;;;0.10;0.10;;;;;;;;;;5051663;28;20043;-89
2021/08/21 04:58:01;;;;;;;0.10;0.10;;;;;;;;;;5050680;28;20037;-88
2021/08/21 05:00:29;;;;;;;0.10;0.10;;;;;;;;;;5050621;28;20472;-89
2021/08/21 05:02:57;;;;;;;0.28;0.28;;;;;;;;;;5050739;28;20041;-88
2021/08/21 05:05:24;;;;;;;0.20;0.20;;;;;;;;;;5051030;28;20041;-89
2021/08/21 05:07:50;;;;;;;0.10;0.10;;;;;;;;;;5054736;28;20130;-88
2021/08/21 05:10:16;;;;;;;0.10;0.10;;;;;;;;;;5054470;28;20107;-91
2021/08/21 05:12:44;;;;;;;0.10;0.10;;;;;;;;;;5054651;28;20033;-92
2021/08/21 05:15:10;;;;;;;0.10;0.10;;;;;;;;;;5054410;28;20404;-90
2021/08/21 05:17:37;;;;;;;0.10;0.10;;;;;;;;;;5054387;28;20059;-89
2021/08/21 05:20:08;;;;;;;0.10;0.10;;;;;;;;;;5037873;28;20057;-89
2021/08/21 05:22:48;;;;;;;0.10;0.10;;;;;;;;;;5054492;28;20037;-89
2021/08/21 05:25:14;;;;;;;0.10;0.10;;;;;;;;;;5039636;28;20044;-89
2021/08/21 05:27:40;;;;;;;0.10;0.10;;;;;;;;;;5055484;28;20044;-89
2021/08/21 05:30:06;;;;;;;0.10;0.10;;;;;;;;;;5054347;28;20047;-89
2021/08/21 05:32:33;;;;;;;0.10;0.10;;;;;;;;;;5054111;28;20037;-88
2021/08/21 05:34:59;;;;;;;0.28;0.28;;;;;;;;;;5057625;28;20040;-88
2021/08/21 05:37:25;;;;;;;0.10;0.10;;;;;;;;;;5057497;28;20111;-89
2021/08/21 05:39:51;;;;;;;0.10;0.10;;;;;;;;;;5075146;28;20067;-89
2021/08/21 05:42:17;;;;;;;0.10;0.10;;;;;;;;;;5057221;28;20432;-88
2021/08/21 05:44:43;;;;;;;0.10;0.10;;;;;;;;;;5024513;28;20509;-88
2021/08/21 05:47:10;;;;;;;0.10;0.10;;;;;;;;;;5040724;28;20115;-89
2021/08/21 05:49:36;;;;;;;0.10;0.10;;;;;;;;;;5057094;28;20040;-89
2021/08/21 05:52:03;;;;;;;0.10;0.10;;;;;;;;;;5057357;28;20040;-89
2021/08/21 05:54:29;;;;;;;0.20;0.20;;;;;;;;;;5073293;28;20051;-88
2021/08/21 05:56:57;;;;;;;0.10;0.10;;;;;;;;;;5057363;28;20510;-88
2021/08/21 05:59:24;;;;;;;0.20;0.20;;;;;;;;;;5057542;28;20123;-88
2021/08/21 06:01:50;;;;;;;0.10;0.10;;;;;;;;;;5057025;28;20039;-88
2021/08/21 06:04:16;;;;;;;0.10;0.10;;;;;;;;;;5057065;28;20332;-89
2021/08/21 06:06:42;;;;;;;0.17;0.17;;;;;;;;;;5040331;28;20033;-88
2021/08/21 06:09:08;;;;;;;1.92;0.17;;;;;;;;;;5056861;28;20040;-88
2021/08/21 06:11:34;;;;;;;0.10;0.10;;;;;;;;;;5056858;28;20060;-88
2021/08/21 06:14:00;;;;;;;0.20;0.20;;;;;;;;;;5056640;28;20036;-88
2021/08/21 06:16:26;;;;;;;0.30;0.30;;;;;;;;;;5056831;28;20054;-88
2021/08/21 06:18:53;;;;;;;0.30;0.30;;;;;;;;;;5055941;28;20368;-88
2021/08/21 06:21:20;;;;;;;0.10;0.10;;;;;;;;;;5072883;28;20155;-88
2021/08/21 06:23:46;;;;;;;0.10;0.10;;;;;;;;;;5056620;28;20063;-89
2021/08/21 06:26:12;;;;;;;0.10;0.10;;;;;;;;;;5040018;28;20044;-89
2021/08/21 06:28:38;;;;;;;0.10;0.10;;;;;;;;;;5039877;28;20036;-89
2021/08/21 06:31:04;;;;;;;0.10;0.10;;;;;;;;;;5039891;28;20036;-89
2021/08/21 06:33:31;;;;;;;0.10;0.10;;;;;;;;;;5056301;28;20076;-90
2021/08/21 06:35:57;;;;;;;0.73;0.73;;;;;;;;;;5039776;28;20036;-89
2021/08/21 06:38:23;;;;;;;0.10;0.10;;;;;;;;;;5056218;28;20044;-89
2021/08/21 06:40:50;;;;;;;0.10;0.10;;;;;;;;;;5056217;28;20556;-88
2021/08/21 06:43:16;;;;;;;0.40;0.40;;;;;;;;;;5056301;28;20063;-89
2021/08/21 06:45:42;;;;;;;0.10;0.10;;;;;;;;;;5056239;28;20174;-89
2021/08/21 06:48:08;;;;;;;0.20;0.20;;;;;;;;;;5056096;28;20059;-89
2021/08/21 06:50:36;;;;;;;0.20;0.20;;;;;;;;;;5039395;28;20459;-89
2021/08/21 06:53:02;;;;;;;0.10;0.10;;;;;;;;;;5056083;28;20028;-89
2021/08/21 06:55:28;;;;;;;0.10;0.10;;;;;;;;;;5056239;28;20419;-89
2021/08/21 06:57:54;;;;;;;0.13;0.13;;;;;;;;;;5055812;28;20492;-89
2021/08/21 07:00:21;;;;;;;0.10;0.10;;;;;;;;;;5039247;28;20097;-89
2021/08/21 07:02:46;;;;;;;0.20;0.20;;;;;;;;;;5073441;28;20039;-89
2021/08/21 07:05:13;;;;;;;0.20;0.20;;;;;;;;;;5055561;28;20384;-89
2021/08/21 07:07:39;;;;;;;0.10;0.10;;;;;;;;;;5055885;28;20033;-89
2021/08/21 07:10:05;;;;;;;0.10;0.10;;;;;;;;;;5038926;28;20494;-89
2021/08/21 07:12:31;;;;;;;0.25;0.25;;;;;;;;;;5039477;28;20115;-89
2021/08/21 07:14:57;;;;;;;0.10;0.10;;;;;;;;;;5055532;28;20181;-89
2021/08/21 07:17:23;;;;;;;0.47;0.30;;;;;;;;;;5055339;28;20495;-89
2021/08/21 07:19:50;;;;;;;0.10;0.10;;;;;;;;;;5055430;28;20032;-89
2021/08/21 07:22:18;;;;;;;0.20;0.20;;;;;;;;;;5055709;28;20091;-90
2021/08/21 07:24:44;;;;;;;0.10;0.10;;;;;;;;;;5038705;28;20482;-89
2021/08/21 07:27:10;;;;;;;0.10;0.10;;;;;;;;;;5038818;28;20519;-89
2021/08/21 07:29:36;;;;;;;0.10;0.10;;;;;;;;;;5038859;28;20032;-89
2021/08/21 07:32:02;;;;;;;0.15;0.15;;;;;;;;;;5073176;28;20037;-90
2021/08/21 07:34:28;;;;;;;0.10;0.10;;;;;;;;;;5051645;28;20101;-89
2021/08/21 07:36:54;;;;;;;0.10;0.10;;;;;;;;;;5051794;28;20388;-90
2021/08/21 07:39:20;;;;;;;0.17;0.17;;;;;;;;;;5051690;28;20068;-89
2021/08/21 07:41:46;;;;;;;0.10;0.10;;;;;;;;;;5051619;28;20099;-89
2021/08/21 07:44:12;;;;;;;0.10;0.10;;;;;;;;;;5051977;28;20033;-90
2021/08/21 07:46:39;;;;;;;0.10;0.10;;;;;;;;;;5053165;28;20033;-90
2021/08/21 07:49:05;;;;;;;0.10;0.10;;;;;;;;;;5035555;28;20041;-90
2021/08/21 07:51:31;;;;;;;0.20;0.20;;;;;;;;;;5051686;28;20033;-90
2021/08/21 07:53:57;;;;;;;0.10;0.10;;;;;;;;;;5051542;28;20045;-90
2021/08/21 07:56:24;;;;;;;0.20;0.20;;;;;;;;;;5051530;28;20103;-90
2021/08/21 07:58:50;;;;;;;0.10;0.10;;;;;;;;;;5034975;28;20040;-90
2021/08/21 08:01:16;;;;;;;0.32;0.32;;;;;;;;;;5051371;28;20083;-90
2021/08/21 08:03:42;;;;;;;0.30;0.30;;;;;;;;;;5052604;28;20048;-90
2021/08/21 08:06:08;;;;;;;0.30;0.30;;;;;;;;;;5051754;28;20037;-90
2021/08/21 08:08:34;;;;;;;0.10;0.10;;;;;;;;;;5052470;28;20044;-90
2021/08/21 08:11:00;;;;;;;0.20;0.20;;;;;;;;;;5035960;28;20044;-90
2021/08/21 08:13:26;;;;;;;0.20;0.20;;;;;;;;;;5052989;28;20407;-90
2021/08/21 08:15:52;;;;;;;0.10;0.10;;;;;;;;;;5036214;28;20047;-90
2021/08/21 08:18:18;;;;;;;0.20;0.20;;;;;;;;;;5054381;28;20033;-90
2021/08/21 08:20:44;;;;;;;0.20;0.20;;;;;;;;;;5037051;28;20039;-90
2021/08/21 08:23:12;;;;;;;0.20;0.20;;;;;;;;;;5070258;28;20039;-89
2021/08/21 08:25:38;;;;;;;0.20;0.20;;;;;;;;;;5075067;28;20045;-90
2021/08/21 08:28:04;;;;;;;0.20;0.20;;;;;;;;;;5075034;28;20037;-89
2021/08/21 08:30:30;;;;;;;0.20;0.20;;;;;;;;;;5069367;28;20494;-89
2021/08/21 08:32:56;;;;;;;0.20;0.20;;;;;;;;;;5059733;28;20067;-90
2021/08/21 08:35:23;;;;;;;0.20;0.20;;;;;;;;;;5050708;28;20082;-90
2021/08/21 08:37:49;;;;;;;0.10;0.10;;;;;;;;;;5050847;28;20040;-90
2021/08/21 08:40:15;;;;;;;0.20;0.20;;;;;;;;;;5050416;28;20166;-91
2021/08/21 08:42:41;;;;;;;0.25;0.25;;;;;;;;;;5050715;28;20037;-90
2021/08/21 08:45:08;;;;;;;0.30;0.30;;;;;;;;;;5052074;28;20128;-90
2021/08/21 08:47:34;;;;;;;0.20;0.20;;;;;;;;;;5050936;28;20126;-89
2021/08/21 08:50:03;;;;;;;0.20;0.20;;;;;;;;;;5034182;28;20041;-90
2021/08/21 08:52:30;;;;;;;0.20;0.20;;;;;;;;;;5034510;28;20117;-89
2021/08/21 08:54:56;;;;;;;0.20;0.20;;;;;;;;;;5033953;28;20037;-89
2021/08/21 08:57:33;;;;;;;0.30;0.30;;;;;;;;;;5051831;28;20048;-90
2021/08/21 08:59:59;;;;;;;0.20;0.20;;;;;;;;;;5050669;28;20048;-90
2021/08/21 09:02:32;;;;;;;0.20;0.20;;;;;;;;;;5050578;28;20055;-90
2021/08/21 09:05:02;;;;;;;0.30;0.30;;;;;;;;;;5050537;28;20041;-90
2021/08/21 09:07:51;;;;;;;0.38;0.38;;;;;;;;;;5034079;28;20459;-89
2021/08/21 09:10:18;;;;;;;0.20;0.20;;;;;;;;;;5050311;28;20082;-90
2021/08/21 09:12:44;;;;;;;0.20;0.20;;;;;;;;;;5051576;28;20045;-90
2021/08/21 09:15:23;;;;;;;0.20;0.20;;;;;;;;;;5051662;28;20057;-89
2021/08/21 09:17:58;;;;;;;0.10;0.10;;;;;;;;;;5051833;28;20333;-89
2021/08/21 09:20:24;;;;;;;0.20;0.20;;;;;;;;;;5050384;28;20217;-89
2021/08/21 09:22:50;;;;;;;0.20;0.20;;;;;;;;;;5050407;28;20075;-89
2021/08/21 09:25:30;;;;;;;0.10;0.10;;;;;;;;;;5050400;28;20496;-90
2021/08/21 09:27:56;;;;;;;0.10;0.10;;;;;;;;;;5049847;28;20160;-90
2021/08/21 09:30:26;;;;;;;0.17;0.17;;;;;;;;;;5033689;28;20037;-89
2021/08/21 09:33:01;;;;;;;0.20;0.20;;;;;;;;;;5054240;28;20574;-89
2021/08/21 09:35:27;;;;;;;0.20;0.20;;;;;;;;;;5053691;28;20047;-90
2021/08/21 09:37:58;;;;;;;0.20;0.20;;;;;;;;;;5054102;28;20471;-90
2021/08/21 09:40:29;;;;;;;0.10;0.10;;;;;;;;;;5037281;28;20079;-89
2021/08/21 09:42:55;;;;;;;0.10;0.10;;;;;;;;;;5071349;28;20353;-89
2021/08/21 09:45:21;;;;;;;0.20;0.20;;;;;;;;;;5036994;28;20040;-89
2021/08/21 09:47:47;;;;;;;0.10;0.10;;;;;;;;;;5071311;28;20111;-89
2021/08/21 09:50:14;;;;;;;0.35;0.35;;;;;;;;;;5036989;28;20044;-90
2021/08/21 09:52:40;;;;;;;0.32;0.28;;;;;;;;;;5072262;28;20112;-90
2021/08/21 09:55:07;;;;;;;0.52;0.35;;;;;;;;;;5040545;28;20072;-91
2021/08/21 09:57:33;;;;;;;0.20;0.20;;;;;;;;;;5057195;28;20090;-89
2021/08/21 10:00:00;;;;;;;0.20;0.20;;;;;;;;;;5040617;28;20395;-89
2021/08/21 10:02:30;;;;;;;0.20;0.20;;;;;;;;;;5040584;28;20034;-90
2021/08/21 10:04:56;;;;;;;0.20;0.20;;;;;;;;;;5056972;28;20040;-90
2021/08/21 10:07:25;;;;;;;0.22;0.22;;;;;;;;;;5074744;28;20388;-90
2021/08/21 10:09:53;;;;;;;0.20;0.20;;;;;;;;;;5057478;28;20162;-90
2021/08/21 10:12:22;;;;;;;0.50;0.50;;;;;;;;;;5057006;28;20089;-90
2021/08/21 10:14:49;;;;;;;0.20;0.20;;;;;;;;;;5074347;28;20047;-90
2021/08/21 10:17:16;;;;;;;0.20;0.20;;;;;;;;;;5057030;28;20037;-91
2021/08/21 10:19:42;;;;;;;0.15;0.15;;;;;;;;;;5057230;28;20045;-90
2021/08/21 10:22:10;;;;;;;0.20;0.20;;;;;;;;;;5056629;28;20464;-91
2021/08/21 10:24:37;;;;;;;0.20;0.20;;;;;;;;;;5057012;28;20116;-90
2021/08/21 10:27:08;;;;;;;0.20;0.20;;;;;;;;;;5056847;28;20075;-90
2021/08/21 10:29:34;;;;;;;0.25;0.25;;;;;;;;;;5074459;28;20189;-90
2021/08/21 10:32:00;;;;;;;0.20;0.20;;;;;;;;;;5039841;28;20477;-90
2021/08/21 10:34:26;;;;;;;0.28;0.20;;;;;;;;;;5037291;28;20068;-90
2021/08/21 10:36:53;;;;;;;0.20;0.20;;;;;;;;;;5016800;28;20045;-90
2021/08/21 10:39:24;;;;;;;0.20;0.20;;;;;;;;;;5033248;28;20450;-89
2021/08/21 10:41:51;;;;;;;0.20;0.20;;;;;;;;;;5016920;28;20041;-90
2021/08/21 10:44:36;;;;;;;0.20;0.20;;;;;;;;;;5016809;28;20484;-91
2021/08/21 10:47:02;;;;;;;0.20;0.20;;;;;;;;;;5034165;28;20041;-90
2021/08/21 10:49:42;;;;;;;0.20;0.20;;;;;;;;;;5016500;28;20388;-90
2021/08/21 10:52:09;;;;;;;0.35;0.30;;;;;;;;;;5032693;28;20034;-90
2021/08/21 10:54:35;;;;;;;0.20;0.20;;;;;;;;;;5032745;28;20140;-90
2021/08/21 10:57:19;;;;;;;0.60;0.60;;;;;;;;;;5033925;28;20072;-90
2021/08/21 10:59:47;;;;;;;0.43;0.43;;;;;;;;;;5033908;28;20044;-90
2021/08/21 11:02:33;;;;;;;0.20;0.20;;;;;;;;;;5016266;28;20033;-91
2021/08/21 11:05:00;;;;;;;0.20;0.20;;;;;;;;;;5029635;28;20075;-90
2021/08/21 11:07:38;;;;;;;0.20;0.20;;;;;;;;;;5016231;28;20049;-90
2021/08/21 11:10:14;;;;;;;0.20;0.20;;;;;;;;;;5033677;28;20113;-88
2021/08/21 11:12:43;;;;;;;0.20;0.20;;;;;;;;;;5032392;28;20041;-91
2021/08/21 11:15:15;;;;;;;1.00;1.00;;;;;;;;;;5032285;28;20129;-90
2021/08/21 11:17:41;;;;;;;0.10;0.10;;;;;;;;;;5032504;28;20064;-90
2021/08/21 11:20:19;;;;;;;0.20;0.20;;;;;;;;;;5032341;28;20033;-90
2021/08/21 11:22:45;;;;;;;0.20;0.20;;;;;;;;;;5032338;28;20116;-90
2021/08/21 11:25:12;;;;;;;0.20;0.20;;;;;;;;;;5032217;28;20049;-90
2021/08/21 11:27:38;;;;;;;0.10;0.10;;;;;;;;;;5015834;28;20042;-90
2021/08/21 11:30:08;;;;;;;0.20;0.20;;;;;;;;;;5032110;28;20079;-90
2021/08/21 11:32:34;;;;;;;0.20;0.20;;;;;;;;;;5033408;28;20076;-90
2021/08/21 11:35:00;;;;;;;0.20;0.20;;;;;;;;;;5051674;28;20056;-90
2021/08/21 11:37:29;;;;;;;0.30;0.30;;;;;;;;;;5051993;28;20075;-90
2021/08/21 11:39:55;;;;;;;0.20;0.20;;;;;;;;;;5051922;28;20120;-90
2021/08/21 11:42:21;;;;;;;0.30;0.30;;;;;;;;;;5051661;28;20068;-90
2021/08/21 11:44:54;;;;;;;0.20;0.20;;;;;;;;;;5051895;28;20044;-91
2021/08/21 11:47:22;;;;;;;0.20;0.20;;;;;;;;;;5035415;28;20032;-90
2021/08/21 11:49:48;;;;;;;0.20;0.20;;;;;;;;;;5034761;28;20045;-90
2021/08/21 11:52:14;;;;;;;0.20;0.20;;;;;;;;;;5051486;28;20044;-90
2021/08/21 11:54:47;;;;;;;0.20;0.20;;;;;;;;;;5051424;28;20041;-91
2021/08/21 11:57:13;;;;;;;0.20;0.20;;;;;;;;;;5051386;28;20056;-90
2021/08/21 11:59:39;;;;;;;0.20;0.20;;;;;;;;;;5051332;28;20056;-90
2021/08/21 12:02:08;;;;;;;0.20;0.20;;;;;;;;;;5051628;28;20037;-90
2021/08/21 12:04:35;;;;;;;0.20;0.20;;;;;;;;;;5034563;28;20049;-89
2021/08/21 12:07:01;;;;;;;0.20;0.20;;;;;;;;;;5034850;28;20469;-90
2021/08/21 12:09:27;;;;;;;0.15;0.15;;;;;;;;;;5034625;28;20119;-90
2021/08/21 12:11:53;;;;;;;0.10;0.10;;;;;;;;;;5051149;28;20068;-90
2021/08/21 12:14:23;;;;;;;0.20;0.20;;;;;;;;;;5034800;28;20342;-91
2021/08/21 12:16:49;;;;;;;0.17;0.17;;;;;;;;;;5034236;28;20033;-89
2021/08/21 12:19:16;;;;;;;0.20;0.20;;;;;;;;;;5034708;28;20441;-90
2021/08/21 12:21:42;;;;;;;0.20;0.20;;;;;;;;;;5051120;28;20340;-90
2021/08/21 12:24:08;;;;;;;0.10;0.10;;;;;;;;;;5033843;28;20067;-89
2021/08/21 12:26:36;;;;;;;0.32;0.32;;;;;;;;;;5051058;28;20071;-89
2021/08/21 12:29:05;;;;;;;0.10;0.10;;;;;;;;;;5051314;28;20041;-91
2021/08/21 12:31:35;;;;;;;0.20;0.20;;;;;;;;;;5051224;28;20044;-90
2021/08/21 12:34:01;;;;;;;0.20;0.20;;;;;;;;;;5050977;28;20057;-89
2021/08/21 12:36:28;;;;;;;0.20;0.20;;;;;;;;;;5034592;28;20044;-90
2021/08/21 12:39:04;;;;;;;0.38;0.38;;;;;;;;;;5050899;28;20044;-90
2021/08/21 12:41:31;;;;;;;0.10;0.10;;;;;;;;;;5034186;28;20079;-90
2021/08/21 12:44:04;;;;;;;0.10;0.10;;;;;;;;;;5050672;28;20060;-90
2021/08/21 12:46:30;;;;;;;0.10;0.10;;;;;;;;;;5034399;28;20127;-90
2021/08/21 12:49:09;;;;;;;0.20;0.20;;;;;;;;;;5034204;28;20069;-90
2021/08/21 12:51:40;;;;;;;0.20;0.20;;;;;;;;;;5051878;28;20365;-89
2021/08/21 12:54:06;;;;;;;0.17;0.17;;;;;;;;;;5034098;28;20045;-89
2021/08/21 12:56:32;;;;;;;0.20;0.20;;;;;;;;;;5050856;28;20050;-90
2021/08/21 12:59:15;;;;;;;0.10;0.10;;;;;;;;;;5034054;28;20041;-89
2021/08/21 13:01:41;;;;;;;0.10;0.10;;;;;;;;;;5034289;28;20056;-90
2021/08/21 13:04:09;;;;;;;0.20;0.20;;;;;;;;;;5050642;28;20067;-90
2021/08/21 13:06:36;;;;;;;0.20;0.20;;;;;;;;;;5051588;28;20043;-89
2021/08/21 13:09:02;;;;;;;0.10;0.10;;;;;;;;;;5034231;28;20083;-90
2021/08/21 13:11:28;;;;;;;0.10;0.10;;;;;;;;;;5050444;28;20127;-91
2021/08/21 13:13:54;;;;;;;0.20;0.20;;;;;;;;;;5018984;28;20076;-90
2021/08/21 13:16:21;;;;;;;0.20;0.20;;;;;;;;;;5019205;28;20408;-90
2021/08/21 13:18:47;;;;;;;0.20;0.20;;;;;;;;;;5051919;28;20037;-90
2021/08/21 13:21:20;;;;;;;0.25;0.25;;;;;;;;;;5034765;28;20051;-92
2021/08/21 13:23:46;;;;;;;0.20;0.20;;;;;;;;;;5050551;28;20041;-89
2021/08/21 13:26:13;;;;;;;0.10;0.10;;;;;;;;;;5050733;28;20047;-90
2021/08/21 13:28:39;;;;;;;0.20;0.20;;;;;;;;;;5054829;28;20041;-89
2021/08/21 13:31:06;;;;;;;0.20;0.20;;;;;;;;;;5054750;28;20104;-89
2021/08/21 13:33:32;;;;;;;0.30;0.30;;;;;;;;;;5061509;28;20072;-89
2021/08/21 13:35:58;;;;;;;0.15;0.15;;;;;;;;;;5075249;28;20067;-89
2021/08/21 13:38:24;;;;;;;0.10;0.10;;;;;;;;;;5041390;28;20083;-89
2021/08/21 13:40:51;;;;;;;0.20;0.20;;;;;;;;;;5042967;28;20116;-89
2021/08/21 13:43:17;;;;;;;0.20;0.20;;;;;;;;;;5026070;28;20071;-90
2021/08/21 13:45:43;;;;;;;0.10;0.10;;;;;;;;;;5040930;28;20052;-90
2021/08/21 13:48:09;;;;;;;0.20;0.20;;;;;;;;;;5040795;28;20051;-89
2021/08/21 13:50:35;;;;;;;0.15;0.15;;;;;;;;;;5075153;28;20156;-89
2021/08/21 13:53:01;;;;;;;0.20;0.20;;;;;;;;;;5057136;28;20056;-90
2021/08/21 13:55:27;;;;;;;0.20;0.20;;;;;;;;;;5074706;28;20040;-90
2021/08/21 13:57:53;;;;;;;0.20;0.20;;;;;;;;;;5057415;28;20097;-89
2021/08/21 14:00:19;;;;;;;0.30;0.30;;;;;;;;;;5056881;28;20134;-89
2021/08/21 14:02:46;;;;;;;0.20;0.20;;;;;;;;;;5057205;28;20032;-90
2021/08/21 14:05:12;;;;;;;0.30;0.30;;;;;;;;;;5040600;28;20044;-89
2021/08/21 14:07:38;;;;;;;0.30;0.30;;;;;;;;;;5040196;28;20084;-89
2021/08/21 14:10:04;;;;;;;0.20;0.20;;;;;;;;;;5056818;28;20036;-90
2021/08/21 14:12:30;;;;;;;0.20;0.20;;;;;;;;;;5074490;28;20426;-89
2021/08/21 14:14:56;;;;;;;0.30;0.30;;;;;;;;;;5039988;28;20041;-89
2021/08/21 14:17:22;;;;;;;0.20;0.20;;;;;;;;;;5056870;28;20032;-91
2021/08/21 14:19:48;;;;;;;0.20;0.20;;;;;;;;;;5056643;28;20036;-90
2021/08/21 14:22:14;;;;;;;0.20;0.20;;;;;;;;;;5056690;28;20402;-89
2021/08/21 14:24:42;;;;;;;0.20;0.20;;;;;;;;;;5040043;28;20041;-90
2021/08/21 14:27:08;;;;;;;0.20;0.20;;;;;;;;;;5056332;28;20037;-88
2021/08/21 14:29:34;;;;;;;0.20;0.20;;;;;;;;;;5056687;28;20062;-89
2021/08/21 14:32:03;;;;;;;0.20;0.20;;;;;;;;;;5040031;28;20040;-89
2021/08/21 14:34:29;;;;;;;0.20;0.20;;;;;;;;;;5022393;28;20079;-89
2021/08/21 14:36:55;;;;;;;0.17;0.17;;;;;;;;;;5034384;28;20064;-89
2021/08/21 14:39:21;;;;;;;0.28;0.28;;;;;;;;;;5015708;28;20064;-88
2021/08/21 14:41:48;;;;;;;0.10;0.10;;;;;;;;;;5032876;28;20720;-89
2021/08/21 14:44:14;;;;;;;0.20;0.20;;;;;;;;;;5034207;28;20045;-90